createdAt,value
2019-06-08T00:00:25.673Z,19.50
2019-06-08T00:02:53.963Z,20.10
2019-06-08T00:05:23.095Z,19.55
2019-06-08T00:07:51.496Z,19.27
2019-06-08T00:10:22.772Z,20.37
2019-06-08T00:12:50.336Z,18.85
2019-06-08T00:15:18.743Z,20.20
2019-06-08T00:17:47.332Z,20.55
2019-06-08T00:20:17.572Z,19.60
2019-06-08T00:22:46.079Z,18.42
2019-06-08T00:25:14.266Z,17.95
2019-06-08T00:27:42.522Z,18.98
2019-06-08T00:30:11.424Z,19.85
2019-06-08T00:32:39.668Z,18.75
2019-06-08T00:35:08.222Z,19.55
2019-06-08T00:37:36.470Z,19.67
2019-06-08T00:40:06.210Z,19.27
2019-06-08T00:42:34.470Z,18.98
2019-06-08T00:45:02.719Z,19.00
2019-06-08T00:47:46.562Z,19.80
2019-06-08T00:50:00.874Z,19.17
2019-06-08T00:52:29.412Z,20.45
2019-06-08T00:54:57.766Z,19.42
2019-06-08T00:57:26.110Z,21.15
2019-06-08T00:59:54.557Z,20.17
2019-06-08T01:02:22.839Z,20.23
2019-06-08T01:04:51.587Z,20.27
2019-06-08T01:07:19.980Z,19.35
2019-06-08T01:09:50.014Z,20.43
2019-06-08T01:12:18.665Z,21.27
2019-06-08T01:14:46.996Z,20.00
2019-06-08T01:17:15.217Z,21.30
2019-06-08T01:19:44.289Z,20.90
2019-06-08T01:22:12.499Z,20.32
2019-06-08T01:24:40.677Z,20.10
2019-06-08T01:27:08.949Z,21.48
2019-06-08T01:29:37.234Z,21.95
2019-06-08T01:32:05.460Z,20.23
2019-06-08T01:34:33.711Z,20.77
2019-06-08T01:37:01.922Z,22.65
2019-06-08T01:39:32.261Z,22.27
2019-06-08T01:41:59.960Z,21.97
2019-06-08T01:44:28.173Z,21.33
2019-06-08T01:46:56.398Z,22.67
2019-06-08T01:49:24.677Z,21.40
2019-06-08T01:51:52.874Z,20.48
2019-06-08T01:54:21.058Z,21.23
2019-06-08T01:56:49.312Z,22.02
2019-06-08T01:59:17.553Z,22.32
2019-06-08T02:01:45.797Z,21.73
2019-06-08T02:04:14.052Z,23.45
2019-06-08T02:06:42.270Z,21.77
2019-06-08T02:09:10.490Z,22.48
2019-06-08T02:11:39.376Z,21.93
2019-06-08T02:14:07.524Z,21.30
2019-06-08T02:16:35.766Z,22.25
2019-06-08T02:19:04.372Z,21.02
2019-06-08T02:21:32.856Z,23.15
2019-06-08T02:24:01.145Z,21.85
2019-06-08T02:26:30.438Z,22.50
2019-06-08T02:28:59.278Z,22.13
2019-06-08T02:31:27.995Z,24.37
2019-06-08T02:33:56.266Z,22.05
2019-06-08T02:36:24.501Z,22.35
2019-06-08T02:38:52.707Z,22.93
2019-06-08T02:41:20.981Z,23.35
2019-06-08T02:43:49.612Z,22.27
2019-06-08T02:46:17.817Z,22.50
2019-06-08T02:49:02.717Z,22.60
2019-06-08T02:51:16.323Z,22.90
2019-06-08T02:53:45.575Z,21.75
2019-06-08T02:56:14.586Z,23.02
2019-06-08T02:58:43.187Z,21.97
2019-06-08T03:01:11.490Z,23.07
2019-06-08T03:03:40.401Z,21.10
2019-06-08T03:06:08.865Z,23.25
2019-06-08T03:08:39.264Z,23.45
2019-06-08T03:11:07.339Z,23.77
2019-06-08T03:13:36.096Z,23.02
2019-06-08T03:16:05.457Z,23.98
2019-06-08T03:18:33.848Z,23.30
2019-06-08T03:21:02.760Z,24.87
2019-06-08T03:23:31.937Z,24.43
2019-06-08T03:26:00.229Z,25.05
2019-06-08T03:28:28.480Z,25.27
2019-06-08T03:30:56.708Z,26.17
2019-06-08T03:33:24.961Z,25.52
2019-06-08T03:35:57.937Z,25.43
2019-06-08T03:38:23.008Z,25.35
2019-06-08T03:40:51.656Z,22.67
2019-06-08T03:43:19.792Z,23.70
2019-06-08T03:45:48.054Z,23.05
2019-06-08T03:48:16.288Z,24.27
2019-06-08T03:50:46.199Z,24.72
2019-06-08T03:53:14.320Z,24.18
2019-06-08T03:55:44.804Z,23.57
2019-06-08T03:58:12.457Z,22.77
2019-06-08T04:00:40.621Z,22.73
2019-06-08T04:03:09.272Z,23.77
2019-06-08T04:05:39.805Z,22.60
2019-06-08T04:08:07.419Z,22.77
2019-06-08T04:10:37.465Z,22.65
2019-06-08T04:13:05.784Z,24.05
2019-06-08T04:15:34.082Z,23.80
2019-06-08T04:18:02.359Z,22.35
2019-06-08T04:20:30.596Z,24.23
2019-06-08T04:22:58.842Z,21.52
2019-06-08T04:25:28.142Z,21.15
2019-06-08T04:27:56.386Z,21.33
2019-06-08T04:30:24.710Z,19.07
2019-06-08T04:32:52.964Z,20.75
2019-06-08T04:35:21.177Z,19.87
2019-06-08T04:37:50.492Z,19.55
2019-06-08T04:40:19.256Z,20.32
2019-06-08T04:42:49.389Z,18.98
2019-06-08T04:45:17.322Z,19.32
2019-06-08T04:47:47.580Z,18.42
2019-06-08T04:50:22.423Z,18.40
2019-06-08T04:52:47.362Z,17.65
2019-06-08T04:55:15.781Z,18.30
2019-06-08T04:57:46.033Z,16.75
2019-06-08T05:00:14.920Z,17.55
2019-06-08T05:02:44.641Z,16.55
2019-06-08T05:05:13.221Z,17.60
2019-06-08T05:07:43.268Z,17.75
2019-06-08T05:10:12.849Z,17.00
2019-06-08T05:12:41.339Z,18.50
2019-06-08T05:15:10.752Z,16.25
2019-06-08T05:17:39.389Z,17.80
2019-06-08T05:20:08.105Z,16.23
2019-06-08T05:22:36.289Z,16.55
2019-06-08T05:25:05.502Z,17.25
2019-06-08T05:27:34.240Z,17.02
2019-06-08T05:30:08.440Z,16.00
2019-06-08T05:32:32.619Z,16.10
2019-06-08T05:35:00.934Z,15.08
2019-06-08T05:37:29.308Z,15.85
2019-06-08T05:39:57.597Z,15.55
2019-06-08T05:42:26.044Z,15.80
2019-06-08T05:44:54.553Z,15.30
2019-06-08T05:47:22.891Z,16.77
2019-06-08T05:49:51.218Z,15.48
2019-06-08T05:52:19.850Z,14.87
2019-06-08T05:54:48.100Z,14.93
2019-06-08T05:57:16.582Z,14.98
2019-06-08T05:59:46.067Z,14.98
2019-06-08T06:02:14.773Z,14.78
2019-06-08T06:04:44.322Z,14.55
2019-06-08T06:07:12.784Z,15.20
2019-06-08T06:09:41.337Z,14.70
2019-06-08T06:12:10.939Z,14.15
2019-06-08T06:14:39.288Z,14.18
2019-06-08T06:17:07.880Z,14.35
2019-06-08T06:19:36.259Z,13.93
2019-06-08T06:22:04.857Z,13.13
2019-06-08T06:24:33.315Z,14.33
2019-06-08T06:27:02.049Z,13.28
2019-06-08T06:29:30.347Z,11.78
2019-06-08T06:31:58.692Z,12.47
2019-06-08T06:34:27.063Z,13.38
2019-06-08T06:36:57.360Z,12.90
2019-06-08T06:39:25.528Z,11.30
2019-06-08T06:41:53.835Z,12.53
2019-06-08T06:44:22.168Z,11.53
2019-06-08T06:46:52.268Z,12.00
2019-06-08T06:49:20.995Z,10.63
2019-06-08T06:51:50.481Z,10.90
2019-06-08T06:54:19.116Z,10.13
2019-06-08T06:56:47.453Z,11.50
2019-06-08T06:59:15.831Z,11.10
2019-06-08T07:01:45.415Z,11.53
2019-06-08T07:04:14.086Z,11.60
2019-06-08T07:06:42.294Z,11.15
2019-06-08T07:09:10.719Z,10.93
2019-06-08T07:11:38.962Z,10.88
2019-06-08T07:14:07.347Z,11.00
2019-06-08T07:16:35.990Z,11.15
2019-06-08T07:19:04.446Z,10.28
2019-06-08T07:21:41.403Z,10.32
2019-06-08T07:24:02.609Z,10.55
2019-06-08T07:26:30.859Z,9.73
2019-06-08T07:28:59.073Z,9.40
2019-06-08T07:31:27.337Z,11.03
2019-06-08T07:33:55.915Z,10.43
2019-06-08T07:36:24.049Z,10.53
2019-06-08T07:38:53.358Z,10.60
2019-06-08T07:41:21.644Z,10.23
2019-06-08T07:43:50.768Z,10.98
2019-06-08T07:46:19.142Z,9.85
2019-06-08T07:48:48.089Z,9.45
2019-06-08T07:51:16.390Z,8.95
2019-06-08T07:53:44.661Z,9.73
2019-06-08T07:56:12.875Z,9.03
2019-06-08T07:58:41.114Z,8.98
2019-06-08T08:01:09.339Z,9.30
2019-06-08T08:03:37.511Z,9.55
2019-06-08T08:06:05.786Z,9.10
2019-06-08T08:08:34.029Z,8.35
2019-06-08T08:11:02.235Z,8.08
2019-06-08T08:13:30.439Z,8.23
2019-06-08T08:15:59.379Z,8.35
2019-06-08T08:18:28.506Z,9.13
2019-06-08T08:20:59.177Z,8.00
2019-06-08T08:23:27.432Z,8.05
2019-06-08T08:25:58.647Z,7.78
2019-06-08T08:28:27.848Z,7.15
2019-06-08T08:30:58.572Z,8.00
2019-06-08T08:33:27.668Z,7.70
2019-06-08T08:35:55.641Z,7.83
2019-06-08T08:38:27.266Z,7.62
2019-06-08T08:40:59.364Z,7.83
2019-06-08T08:43:25.181Z,7.87
2019-06-08T08:45:54.015Z,7.67
2019-06-08T08:48:28.114Z,7.83
2019-06-08T08:50:52.386Z,6.80
2019-06-08T08:53:20.793Z,6.50
2019-06-08T08:55:49.854Z,6.83
2019-06-08T08:58:19.389Z,6.60
2019-06-08T09:00:48.644Z,6.90
2019-06-08T09:03:28.741Z,6.55
2019-06-08T09:05:48.276Z,7.00
2019-06-08T09:08:18.207Z,6.83
2019-06-08T09:10:48.063Z,6.97
2019-06-08T09:13:18.650Z,6.70
2019-06-08T09:15:47.962Z,6.62
2019-06-08T09:18:18.641Z,7.17
2019-06-08T09:20:47.872Z,7.30
2019-06-08T09:23:21.440Z,6.65
2019-06-08T09:25:48.251Z,6.37
2019-06-08T09:28:18.517Z,7.67
2019-06-08T09:30:48.238Z,6.08
2019-06-08T09:33:18.608Z,6.45
2019-06-08T09:35:47.897Z,7.10
2019-06-08T09:38:18.370Z,6.97
2019-06-08T09:40:45.770Z,6.83
2019-06-08T09:43:13.978Z,6.60
2019-06-08T09:45:42.273Z,6.67
2019-06-08T09:48:10.493Z,6.50
2019-06-08T09:50:38.806Z,6.40
2019-06-08T09:53:23.031Z,6.30
2019-06-08T09:55:38.185Z,7.20
2019-06-08T09:58:11.508Z,7.05
2019-06-08T10:00:37.960Z,6.65
2019-06-08T10:03:09.109Z,7.28
2019-06-08T10:05:38.694Z,7.17
2019-06-08T10:08:07.031Z,7.53
2019-06-08T10:10:36.008Z,6.95
2019-06-08T10:13:06.253Z,7.05
2019-06-08T10:15:34.303Z,6.97
2019-06-08T10:18:03.326Z,7.50
2019-06-08T10:20:31.967Z,7.05
2019-06-08T10:23:03.195Z,7.25
2019-06-08T10:25:32.166Z,6.78
2019-06-08T10:28:06.752Z,7.60
2019-06-08T10:30:30.474Z,6.95
2019-06-08T10:33:01.594Z,6.67
2019-06-08T10:35:28.640Z,6.28
2019-06-08T10:38:01.422Z,6.28
2019-06-08T10:40:28.511Z,6.37
2019-06-08T10:42:59.832Z,6.50
2019-06-08T10:45:28.526Z,6.87
2019-06-08T10:47:59.350Z,6.08
2019-06-08T10:50:28.793Z,6.45
2019-06-08T10:53:01.259Z,6.20
2019-06-08T10:55:28.074Z,6.00
2019-06-08T10:57:56.458Z,6.22
2019-06-08T11:00:28.151Z,7.12
2019-06-08T11:02:58.988Z,7.20
2019-06-08T11:05:27.916Z,6.20
2019-06-08T11:07:55.661Z,6.30
2019-06-08T11:10:23.909Z,6.00
2019-06-08T11:12:52.117Z,6.83
2019-06-08T11:15:20.414Z,6.97
2019-06-08T11:17:48.632Z,6.20
2019-06-08T11:20:17.705Z,6.37
2019-06-08T11:22:49.804Z,6.12
2019-06-08T11:25:19.639Z,6.33
2019-06-08T11:27:47.503Z,6.37
2019-06-08T11:30:23.478Z,6.47
2019-06-08T11:32:47.923Z,6.10
2019-06-08T11:35:17.708Z,6.10
2019-06-08T11:37:48.708Z,5.90
2019-06-08T11:40:18.065Z,5.50
2019-06-08T11:42:48.513Z,7.30
2019-06-08T11:45:17.738Z,6.15
2019-06-08T11:47:48.402Z,6.62
2019-06-08T11:50:18.294Z,6.20
2019-06-08T11:52:49.190Z,6.33
2019-06-08T11:55:18.108Z,6.15
2019-06-08T11:57:48.761Z,5.92
2019-06-08T12:00:27.589Z,5.85
2019-06-08T12:02:51.489Z,5.50
2019-06-08T12:05:19.653Z,6.12
2019-06-08T12:07:48.087Z,7.70
2019-06-08T12:10:17.781Z,6.45
2019-06-08T12:12:46.128Z,5.80
2019-06-08T12:15:17.544Z,5.58
2019-06-08T12:17:44.223Z,6.70
2019-06-08T12:20:17.073Z,6.55
2019-06-08T12:22:42.528Z,6.28
2019-06-08T12:25:12.372Z,6.22
2019-06-08T12:27:40.573Z,5.80
2019-06-08T12:30:16.720Z,6.62
2019-06-08T12:32:38.688Z,6.25
2019-06-08T12:35:09.041Z,6.20
2019-06-08T12:37:38.744Z,5.70
2019-06-08T12:40:09.808Z,6.08
2019-06-08T12:42:38.198Z,6.25
2019-06-08T12:45:07.259Z,6.60
2019-06-08T12:47:37.912Z,6.37
2019-06-08T12:50:08.213Z,6.90
2019-06-08T12:52:35.955Z,6.17
2019-06-08T12:55:11.310Z,5.78
2019-06-08T12:57:35.596Z,5.78
2019-06-08T13:00:05.422Z,7.05
2019-06-08T13:02:33.725Z,5.92
2019-06-08T13:05:01.938Z,6.12
2019-06-08T13:07:30.186Z,5.80
2019-06-08T13:09:58.484Z,6.42
2019-06-08T13:12:26.749Z,6.47
2019-06-08T13:14:55.034Z,6.42
2019-06-08T13:17:23.226Z,6.12
2019-06-08T13:19:51.363Z,5.97
2019-06-08T13:22:27.265Z,6.42
2019-06-08T13:24:49.469Z,6.53
2019-06-08T13:27:21.109Z,10.25
2019-06-08T13:29:48.830Z,6.47
2019-06-08T13:32:19.906Z,5.65
2019-06-08T13:34:47.267Z,5.75
2019-06-08T13:37:18.929Z,5.50
2019-06-08T13:39:46.747Z,5.70
2019-06-08T13:42:15.242Z,7.67
2019-06-08T13:44:44.062Z,5.20
2019-06-08T13:47:12.591Z,5.30
2019-06-08T13:49:41.415Z,5.15
2019-06-08T13:52:10.290Z,5.35
2019-06-08T13:54:38.464Z,5.37
2019-06-08T13:57:08.583Z,5.53
2019-06-08T13:59:38.844Z,5.65
2019-06-08T14:02:06.395Z,5.80
2019-06-08T14:04:34.588Z,5.70
2019-06-08T14:07:02.824Z,5.67
2019-06-08T14:09:31.679Z,5.95
2019-06-08T14:12:00.156Z,6.00
2019-06-08T14:14:29.007Z,6.05
2019-06-08T14:16:58.760Z,5.92
2019-06-08T14:19:31.046Z,6.05
2019-06-08T14:21:57.407Z,5.70
2019-06-08T14:24:44.997Z,6.08
2019-06-08T14:27:13.398Z,6.00
2019-06-08T14:29:41.606Z,6.35
2019-06-08T14:32:09.813Z,6.00
2019-06-08T14:34:38.665Z,6.67
2019-06-08T14:37:08.653Z,6.20
2019-06-08T14:39:36.936Z,6.65
2019-06-08T14:42:05.212Z,6.58
2019-06-08T14:44:34.089Z,6.95
2019-06-08T14:47:04.161Z,6.30
2019-06-08T14:49:34.961Z,9.60
2019-06-08T14:52:02.233Z,8.68
2019-06-08T14:54:34.795Z,7.47
2019-06-08T14:57:00.369Z,7.03
2019-06-08T14:59:30.421Z,6.92
2019-06-08T15:01:58.402Z,6.83
2019-06-08T15:04:32.580Z,6.62
2019-06-08T15:06:58.623Z,6.78
2019-06-08T15:09:27.518Z,6.67
2019-06-08T15:11:57.975Z,6.60
2019-06-08T15:14:25.803Z,6.92
2019-06-08T15:16:55.677Z,7.33
2019-06-08T15:19:24.432Z,7.47
2019-06-08T15:21:52.764Z,7.05
2019-06-08T15:24:20.964Z,7.22
2019-06-08T15:26:49.256Z,7.45
2019-06-08T15:29:17.531Z,7.28
2019-06-08T15:31:48.104Z,7.80
2019-06-08T15:34:17.782Z,6.53
2019-06-08T15:36:45.501Z,7.62
2019-06-08T15:39:13.664Z,7.62
2019-06-08T15:41:42.167Z,7.40
2019-06-08T15:44:10.305Z,7.08
2019-06-08T15:46:41.057Z,7.80
2019-06-08T15:49:10.808Z,7.97
2019-06-08T15:51:40.683Z,7.80
2019-06-08T15:54:08.201Z,8.55
2019-06-08T15:56:47.670Z,9.18
2019-06-08T15:59:08.852Z,9.98
2019-06-08T16:01:36.157Z,8.83
2019-06-08T16:04:04.670Z,8.85
2019-06-08T16:06:33.915Z,8.60
2019-06-08T16:09:02.480Z,8.68
2019-06-08T16:11:30.767Z,8.65
2019-06-08T16:13:58.971Z,8.68
2019-06-08T16:16:27.158Z,9.83
2019-06-08T16:18:55.388Z,9.68
2019-06-08T16:21:23.651Z,11.15
2019-06-08T16:23:51.901Z,10.00
2019-06-08T16:26:20.130Z,9.60
2019-06-08T16:28:48.449Z,10.85
2019-06-08T16:31:16.673Z,9.68
2019-06-08T16:33:45.475Z,9.63
2019-06-08T16:36:13.638Z,9.68
2019-06-08T16:38:41.838Z,9.60
2019-06-08T16:41:11.362Z,9.10
2019-06-08T16:43:39.531Z,9.35
2019-06-08T16:46:07.673Z,11.18
2019-06-08T16:48:36.289Z,14.55
2019-06-08T16:51:04.563Z,12.23
2019-06-08T16:53:34.048Z,12.13
2019-06-08T16:56:02.854Z,9.20
2019-06-08T16:58:32.138Z,8.43
2019-06-08T17:01:00.512Z,8.45
2019-06-08T17:03:28.810Z,8.90
2019-06-08T17:05:57.001Z,8.45
2019-06-08T17:08:25.229Z,8.80
2019-06-08T17:10:53.798Z,8.60
2019-06-08T17:13:22.181Z,9.88
2019-06-08T17:15:50.344Z,9.13
2019-06-08T17:18:18.639Z,9.33
2019-06-08T17:20:46.843Z,10.28
2019-06-08T17:23:15.013Z,10.88
2019-06-08T17:25:43.282Z,13.35
2019-06-08T17:28:11.485Z,9.90
2019-06-08T17:30:39.745Z,10.03
2019-06-08T17:33:07.995Z,9.80
2019-06-08T17:35:37.306Z,11.30
2019-06-08T17:38:05.954Z,12.20
2019-06-08T17:40:34.276Z,12.58
2019-06-08T17:43:02.597Z,14.05
2019-06-08T17:45:32.175Z,11.73
2019-06-08T17:48:00.662Z,11.12
2019-06-08T17:50:28.809Z,11.12
2019-06-08T17:52:56.952Z,11.10
2019-06-08T17:55:25.119Z,11.65
2019-06-08T17:57:53.873Z,12.30
2019-06-08T18:00:22.434Z,11.70
2019-06-08T18:02:51.113Z,11.48
2019-06-08T18:05:19.246Z,11.93
2019-06-08T18:07:49.033Z,12.35
2019-06-08T18:10:17.966Z,12.58
2019-06-08T18:12:49.018Z,15.38
2019-06-08T18:15:17.434Z,12.47
2019-06-08T18:17:48.089Z,12.98
2019-06-08T18:20:18.149Z,13.95
2019-06-08T18:22:48.869Z,13.55
2019-06-08T18:25:17.448Z,16.42
2019-06-08T18:28:02.663Z,14.95
2019-06-08T18:30:18.962Z,13.62
2019-06-08T18:32:48.530Z,13.38
2019-06-08T18:35:18.305Z,15.00
2019-06-08T18:37:48.710Z,19.35
2019-06-08T18:40:17.949Z,17.98
2019-06-08T18:42:48.700Z,15.72
2019-06-08T18:45:18.180Z,20.27
2019-06-08T18:47:48.487Z,14.50
2019-06-08T18:50:17.363Z,13.55
2019-06-08T18:52:47.166Z,13.03
2019-06-08T18:55:18.349Z,13.50
2019-06-08T18:57:49.091Z,12.55
2019-06-08T19:00:16.481Z,13.40
2019-06-08T19:02:46.456Z,13.18
2019-06-08T19:05:14.604Z,14.33
2019-06-08T19:07:43.782Z,13.93
2019-06-08T19:10:13.612Z,13.35
2019-06-08T19:12:42.876Z,15.13
2019-06-08T19:15:12.036Z,15.58
2019-06-08T19:17:46.544Z,14.90
2019-06-08T19:20:10.576Z,14.98
2019-06-08T19:22:43.750Z,15.50
2019-06-08T19:25:08.708Z,15.63
2019-06-08T19:27:41.055Z,17.05
2019-06-08T19:30:06.814Z,18.05
2019-06-08T19:32:34.994Z,33.13
2019-06-08T19:35:03.525Z,17.80
2019-06-08T19:37:32.803Z,18.40
2019-06-08T19:40:01.187Z,18.32
2019-06-08T19:42:39.685Z,19.55
2019-06-08T19:45:05.219Z,19.10
2019-06-08T19:47:29.351Z,19.17
2019-06-08T19:49:57.869Z,20.97
2019-06-08T19:52:26.206Z,20.00
2019-06-08T19:54:54.734Z,19.02
2019-06-08T19:57:23.004Z,20.15
2019-06-08T19:59:51.207Z,20.65
2019-06-08T20:02:19.378Z,20.45
2019-06-08T20:04:47.518Z,20.48
2019-06-08T20:07:17.532Z,21.77
2019-06-08T20:09:48.160Z,23.25
2019-06-08T20:12:18.479Z,23.15
2019-06-08T20:14:48.035Z,22.02
2019-06-08T20:17:17.182Z,27.52
2019-06-08T20:19:48.059Z,29.70
2019-06-08T20:22:18.083Z,34.08
2019-06-08T20:24:46.995Z,41.18
2019-06-08T20:27:17.217Z,29.70
2019-06-08T20:29:47.849Z,27.98
2019-06-08T20:32:17.884Z,27.75
2019-06-08T20:34:45.141Z,29.20
2019-06-08T20:37:17.411Z,31.10
2019-06-08T20:39:59.406Z,30.65
2019-06-08T20:42:17.195Z,31.25
2019-06-08T20:44:44.585Z,32.85
2019-06-08T20:47:12.844Z,35.98
2019-06-08T20:49:42.179Z,37.28
2019-06-08T20:52:10.617Z,35.92
2019-06-08T20:54:38.889Z,37.10
2019-06-08T20:57:07.607Z,35.98
2019-06-08T20:59:39.377Z,34.43
2019-06-08T21:02:08.370Z,36.55
2019-06-08T21:04:38.206Z,37.85
2019-06-08T21:07:07.983Z,40.03
2019-06-08T21:09:37.104Z,34.65
2019-06-08T21:12:05.709Z,37.33
2019-06-08T21:14:33.909Z,37.03
2019-06-08T21:17:02.091Z,37.53
2019-06-08T21:19:30.291Z,38.40
2019-06-08T21:21:59.324Z,38.33
2019-06-08T21:24:28.209Z,39.13
2019-06-08T21:27:00.154Z,42.38
2019-06-08T21:29:32.323Z,41.00
2019-06-08T21:32:00.338Z,42.33
2019-06-08T21:34:26.162Z,44.48
2019-06-08T21:36:55.725Z,44.05
2019-06-08T21:39:24.381Z,42.83
2019-06-08T21:41:54.958Z,40.83
2019-06-08T21:44:22.472Z,40.58
2019-06-08T21:46:51.782Z,39.03
2019-06-08T21:49:20.590Z,39.70
2019-06-08T21:51:51.340Z,38.25
2019-06-08T21:54:18.684Z,37.48
2019-06-08T21:56:48.934Z,36.13
2019-06-08T21:59:18.205Z,38.13
2019-06-08T22:01:49.190Z,38.33
2019-06-08T22:04:18.508Z,37.00
2019-06-08T22:06:48.014Z,36.05
2019-06-08T22:09:17.640Z,33.00
2019-06-08T22:11:47.125Z,33.70
2019-06-08T22:14:15.560Z,33.00
2019-06-08T22:16:43.816Z,32.33
2019-06-08T22:19:12.018Z,30.37
2019-06-08T22:21:40.155Z,28.40
2019-06-08T22:24:08.434Z,28.47
2019-06-08T22:26:36.766Z,27.55
2019-06-08T22:29:07.599Z,27.35
2019-06-08T22:31:37.051Z,25.50
2019-06-08T22:34:04.855Z,25.52
2019-06-08T22:36:33.003Z,26.80
2019-06-08T22:39:03.834Z,25.12
2019-06-08T22:41:32.108Z,25.52
2019-06-08T22:44:00.954Z,22.80
2019-06-08T22:46:29.291Z,22.50
2019-06-08T22:49:00.592Z,21.85
2019-06-08T22:51:27.754Z,21.73
2019-06-08T22:53:58.895Z,21.35
2019-06-08T22:56:27.602Z,19.40
2019-06-08T22:58:57.150Z,20.15
2019-06-08T23:01:27.879Z,22.10
2019-06-08T23:03:57.005Z,19.73
2019-06-08T23:06:27.937Z,19.10
2019-06-08T23:08:59.780Z,19.57
2019-06-08T23:11:25.487Z,18.32
2019-06-08T23:13:54.319Z,19.82
2019-06-08T23:16:22.908Z,18.80
2019-06-08T23:18:51.157Z,18.67
2019-06-08T23:21:19.492Z,18.73
2019-06-08T23:23:47.895Z,18.65
2019-06-08T23:26:18.140Z,18.07
2019-06-08T23:28:47.152Z,18.20
2019-06-08T23:31:22.517Z,17.75
2019-06-08T23:33:47.997Z,16.82
2019-06-08T23:36:45.954Z,15.95
2019-06-08T23:38:47.982Z,15.72
2019-06-08T23:41:17.688Z,15.72
2019-06-08T23:43:47.898Z,15.53
2019-06-08T23:46:17.907Z,13.80
2019-06-08T23:48:48.158Z,13.48
2019-06-08T23:51:17.906Z,12.60
2019-06-08T23:53:47.607Z,13.08
2019-06-08T23:56:15.336Z,11.88
2019-06-08T23:58:43.551Z,10.93
